Terminal Aerodrome Forecast
Issued by NWS Melbourne, FL

Home | Current Version | Previous Version | Text Only | Print | Product List | Glossary On
Versions: 1 2 3 4 5 6 7 8 9 10 11 12 13
000
FTUS42 KMLB 251100
TAFMLB
TAF
KMLB 251120Z 2512/2612 31006KT P6SM FEW200
     FM251700 34007KT P6SM FEW150 SCT250
     FM252300 22005KT P6SM SCT100 BKN250
     FM260700 21007KT P6SM SCT020 BKN050=

USA.gov is the U.S. government's official web portal to all federal, state and local government web resources and services.